Terminal Aerodrome Forecast
Issued by NWS Upton, NY

Home | Current Version | Previous Version | Text Only | Print | Product List | Glossary On
Versions: 1 2 3 4 5 6 7 8 9 10 11 12 13 14 15 16 17 18 19 20 21 22 23 24 25 26 27 28
000
FTUS41 KOKX 020500
TAFEWR
TAF
KEWR 020534Z 0206/0312 11004KT P6SM -RA FEW008 SCT050 BKN150
     FM020900 05006KT 6SM -RA FEW008 OVC050
     FM021100 05008KT 5SM RA BR FEW008 SCT015 OVC025
      TEMPO 0212/0216 FEW008 BKN015
     FM021700 05008KT P6SM BKN035
     FM022000 08008KT P6SM BKN035
     FM030300 05005KT P6SM OVC040
     FM031000 06005KT P6SM VCSH OVC030=

USA.gov is the U.S. government's official web portal to all federal, state and local government web resources and services.